Terminal Aerodrome Forecast
Issued by NWS

Home | Current Version | Previous Version | Text Only | Print | Product List | Glossary On
Versions: 1 2 3 4 5 6 7 8 9 10 11 12 13 14 15 16 17
000
FTUS43 KICT 031722
TAFSLN
TAF
KSLN 031722Z 0318/0418 19016G23KT P6SM FEW100
     FM040100 18012KT P6SM SCT080 BKN200
     FM040600 18010KT P6SM VCTS BKN090CB OVC200
     FM041500 17010KT P6SM SCT090 BKN200=

USA.gov is the U.S. government's official web portal to all federal, state and local government web resources and services.